Terminal Aerodrome Forecast
Issued by NWS Bismarck, ND

Home | Current Version | Previous Version | Text Only | Print | Product List | Glossary Off
Versions: 1 2 3 4 5 6 7 8 9 10 11 12 13 14 15 16 17 18 19 20 21

000
FTUS43 KBIS 061122
TAFISN
TAF
KISN 061122Z 0612/0712 34005KT 6SM FU SCT050 BKN100
     FM062100 36010KT 6SM FU SKC
     FM070300 VRB03KT 4SM FU SKC
     FM070900 12005KT 3SM FU SKC=

USA.gov is the U.S. government's official web portal to all federal, state and local government web resources and services.